Hauptseite
METAR-TAF:

METAR-TAF

Flughäfen :

Ferrara, Italien

Breite: 44-50N, Länge: 011-37E, Höhe: 10 m

Beobachtung

Neuester Wetterbericht von vor 55 Minuten, um 05:55 UTC
Windstille
Temperatur 20°C
Luftfeuchtigkeit 100%
Luftdruck 1012 hPa
Sichtweite: 8000 m
Geschlossene Wolkendecke in der Höhe von 7000 ft

METAR: LIPF 240555Z 00000KT 8000 OVC070 20/20 Q1012 RMK OVC VIS MIN 8000

Zeit: 08:50 (06:50 UTC)


TAF: fehlend

Wetterbeobachtungen und Prognosen von mehr als 4000 Flughäfen (METAR und TAF Bericht).

Die verfügbaren Stationen werden durch gelbe und rote Markierungen auf der Karte dargestellt.

Führen Sie die Maus auf sie, um den Namen der Station zu sehen.

Darauf klicken, um die Beobachtung von Wetterbeobachtungen und Prognosen zu sehen.

Um die Karte zu ändern : klicken Sie auf den grünen Tasten mit einem schwarzen Kreuz Zum Vergrößern, auf den grünen Button mit einem Gedankenstrich zu verkleinern, oder auf die grünen Pfeile für benachbarte Karten.


METAR-TAF: